Time;durP1;ratioP1;P1;durP2;ratioP2;P2;SDS_P1;SDS_P2;PMS_P1;PMS_P2;Temp;Humidity;BMP_temperature;BMP_pressure;BME280_temperature;BME280_humidity;BME280_pressure;Samples;Min_cycle;Max_cycle;Signal;HPM_P1;HPM_P2
2022/11/17 00:00:04;;;;;;;34.20;16.73;;;;;;;;;;4950181;28;20492;-72
2022/11/17 00:02:35;;;;;;;14.55;11.05;;;;;;;;;;4949802;28;20039;-71
2022/11/17 00:05:01;;;;;;;17.73;11.95;;;;;;;;;;4950169;29;20054;-70
2022/11/17 00:07:29;;;;;;;11.63;10.43;;;;;;;;;;4932769;29;20482;-72
2022/11/17 00:09:55;;;;;;;11.93;9.77;;;;;;;;;;4932616;29;20090;-72
2022/11/17 00:15:05;;;;;;;11.60;8.27;;;;;;;;;;4932811;29;20043;-72
2022/11/17 00:17:31;;;;;;;9.85;8.85;;;;;;;;;;4932309;29;20483;-72
2022/11/17 00:22:42;;;;;;;16.35;10.75;;;;;;;;;;4933180;29;20110;-70
2022/11/17 00:25:08;;;;;;;13.25;8.90;;;;;;;;;;4950107;29;20039;-72
2022/11/17 00:27:34;;;;;;;10.65;7.85;;;;;;;;;;4931994;29;20035;-72
2022/11/17 00:30:00;;;;;;;15.27;7.03;;;;;;;;;;4932628;29;20468;-72
2022/11/17 00:35:10;;;;;;;19.13;13.35;;;;;;;;;;4949649;29;20039;-72
2022/11/17 00:37:37;;;;;;;20.92;9.82;;;;;;;;;;4948634;29;20043;-71
2022/11/17 00:40:04;;;;;;;19.65;11.27;;;;;;;;;;4916601;29;20346;-72
2022/11/17 00:42:30;;;;;;;16.77;10.88;;;;;;;;;;4949171;29;20063;-72
2022/11/17 00:44:56;;;;;;;11.10;9.40;;;;;;;;;;4932235;29;20042;-72
2022/11/17 00:47:22;;;;;;;15.88;10.48;;;;;;;;;;4949207;29;20423;-72
2022/11/17 00:49:48;;;;;;;16.83;11.32;;;;;;;;;;4949421;29;20126;-71
2022/11/17 00:52:14;;;;;;;18.73;10.13;;;;;;;;;;4948755;28;20045;-72
2022/11/17 00:54:40;;;;;;;18.08;11.98;;;;;;;;;;4932221;29;20043;-73
2022/11/17 00:57:06;;;;;;;16.23;10.95;;;;;;;;;;4932091;29;20031;-72
2022/11/17 00:59:32;;;;;;;15.90;10.93;;;;;;;;;;4916116;29;20556;-72
2022/11/17 01:01:58;;;;;;;19.00;10.55;;;;;;;;;;4947519;28;20035;-71
2022/11/17 01:04:24;;;;;;;18.25;11.13;;;;;;;;;;4927568;29;20166;-72
2022/11/17 01:06:50;;;;;;;16.25;9.70;;;;;;;;;;4930414;29;20610;-72
2022/11/17 01:09:17;;;;;;;9.05;6.28;;;;;;;;;;4913219;29;20093;-71
2022/11/17 01:11:42;;;;;;;17.40;10.55;;;;;;;;;;4897410;29;20032;-72
2022/11/17 01:14:12;;;;;;;16.38;9.85;;;;;;;;;;4929958;29;20044;-72
2022/11/17 01:16:38;;;;;;;10.82;9.38;;;;;;;;;;4896977;29;20036;-73
2022/11/17 01:19:04;;;;;;;16.92;9.43;;;;;;;;;;4930146;29;20050;-72
2022/11/17 01:21:30;;;;;;;15.63;9.02;;;;;;;;;;4897036;29;20099;-72
2022/11/17 01:23:56;;;;;;;11.55;7.30;;;;;;;;;;4930071;29;20599;-71
2022/11/17 01:26:23;;;;;;;14.95;8.98;;;;;;;;;;4929587;29;20036;-72
2022/11/17 01:28:49;;;;;;;18.08;9.70;;;;;;;;;;4912922;29;20043;-71
2022/11/17 01:31:16;;;;;;;20.58;9.27;;;;;;;;;;4929852;29;20567;-72
2022/11/17 01:33:42;;;;;;;9.77;8.02;;;;;;;;;;4929798;29;20047;-71
2022/11/17 01:36:15;;;;;;;13.73;8.98;;;;;;;;;;4912804;29;20035;-72
2022/11/17 01:38:41;;;;;;;15.02;9.70;;;;;;;;;;4898477;29;20039;-72
2022/11/17 01:41:11;;;;;;;14.65;9.15;;;;;;;;;;4913556;29;20040;-72
2022/11/17 01:43:38;;;;;;;15.65;8.88;;;;;;;;;;4896694;29;20032;-71
2022/11/17 01:46:05;;;;;;;13.15;8.45;;;;;;;;;;4929607;29;20036;-71
2022/11/17 01:48:31;;;;;;;9.65;8.05;;;;;;;;;;4896863;29;20118;-72
2022/11/17 01:50:56;;;;;;;12.65;9.82;;;;;;;;;;4929927;29;20083;-71
2022/11/17 01:53:22;;;;;;;17.52;9.10;;;;;;;;;;4913018;29;20058;-72
2022/11/17 01:55:53;;;;;;;10.27;8.88;;;;;;;;;;4932485;29;20031;-72
2022/11/17 01:58:40;;;;;;;23.10;9.85;;;;;;;;;;4916862;29;20052;-71
2022/11/17 02:01:06;;;;;;;16.63;10.60;;;;;;;;;;4951093;28;20046;-72
2022/11/17 02:03:33;;;;;;;17.20;10.45;;;;;;;;;;4952193;28;20039;-72
2022/11/17 02:06:06;;;;;;;17.42;11.73;;;;;;;;;;4956003;29;20122;-72
2022/11/17 02:08:32;;;;;;;22.50;11.05;;;;;;;;;;4957958;28;20067;-73
2022/11/17 02:10:59;;;;;;;20.83;12.82;;;;;;;;;;4940427;29;20039;-72
2022/11/17 02:13:25;;;;;;;23.38;13.27;;;;;;;;;;4939954;29;20054;-73
2022/11/17 02:16:11;;;;;;;30.65;13.00;;;;;;;;;;4929554;29;20050;-71
2022/11/17 02:18:38;;;;;;;28.00;15.00;;;;;;;;;;4924116;29;20046;-72
2022/11/17 02:21:12;;;;;;;19.45;11.07;;;;;;;;;;4958047;28;20066;-73
2022/11/17 02:23:56;;;;;;;20.38;12.18;;;;;;;;;;4940331;29;20038;-71
2022/11/17 02:26:25;;;;;;;18.90;12.52;;;;;;;;;;4958240;29;20118;-70
2022/11/17 02:29:03;;;;;;;17.48;10.30;;;;;;;;;;4957142;28;20542;-74
2022/11/17 02:31:33;;;;;;;21.48;12.95;;;;;;;;;;4957653;29;20110;-72
2022/11/17 02:33:59;;;;;;;14.65;10.15;;;;;;;;;;4940568;29;20058;-71
2022/11/17 02:36:25;;;;;;;14.90;11.02;;;;;;;;;;4955555;29;20046;-71
2022/11/17 02:38:53;;;;;;;22.73;13.52;;;;;;;;;;4956588;29;20039;-72
2022/11/17 02:41:21;;;;;;;19.08;11.80;;;;;;;;;;4956590;29;20048;-73
2022/11/17 02:44:03;;;;;;;19.58;12.02;;;;;;;;;;4953553;29;20058;-71
2022/11/17 02:46:49;;;;;;;18.52;14.23;;;;;;;;;;4936060;29;20039;-71
2022/11/17 02:49:18;;;;;;;20.48;11.05;;;;;;;;;;4954816;29;20109;-72
2022/11/17 02:51:44;;;;;;;15.13;11.73;;;;;;;;;;4937877;29;20167;-72
2022/11/17 02:54:10;;;;;;;25.42;12.95;;;;;;;;;;4936832;29;20264;-71
2022/11/17 02:56:40;;;;;;;15.45;9.63;;;;;;;;;;4920905;29;20042;-72
2022/11/17 02:59:06;;;;;;;24.70;12.07;;;;;;;;;;4954152;29;20035;-72
2022/11/17 03:01:32;;;;;;;12.90;10.07;;;;;;;;;;4951902;28;20074;-71
2022/11/17 03:04:10;;;;;;;12.45;8.40;;;;;;;;;;4937004;29;20066;-72
2022/11/17 03:06:39;;;;;;;28.10;13.23;;;;;;;;;;4954063;29;20035;-72
2022/11/17 03:09:17;;;;;;;20.88;10.77;;;;;;;;;;4938877;29;20375;-73
2022/11/17 03:11:52;;;;;;;12.10;7.82;;;;;;;;;;4934412;29;20027;-71
2022/11/17 03:14:18;;;;;;;6.75;6.20;;;;;;;;;;4956314;28;20129;-72
2022/11/17 03:16:48;;;;;;;12.27;7.50;;;;;;;;;;4936864;29;20023;-72
2022/11/17 03:19:18;;;;;;;6.78;6.20;;;;;;;;;;4920605;29;20186;-72
2022/11/17 03:21:46;;;;;;;7.15;6.53;;;;;;;;;;4901637;29;20055;-73
2022/11/17 03:24:12;;;;;;;8.63;7.50;;;;;;;;;;4934016;29;20412;-72
2022/11/17 03:26:39;;;;;;;9.20;5.63;;;;;;;;;;4932620;29;20032;-73
2022/11/17 03:29:06;;;;;;;10.15;8.32;;;;;;;;;;4931466;29;20086;-71
2022/11/17 03:31:32;;;;;;;10.63;7.75;;;;;;;;;;4933777;29;20043;-71
2022/11/17 03:33:58;;;;;;;8.73;6.50;;;;;;;;;;4934850;29;20051;-73
2022/11/17 03:36:25;;;;;;;6.28;5.50;;;;;;;;;;4904880;29;20024;-72
2022/11/17 03:39:02;;;;;;;7.63;6.35;;;;;;;;;;4870578;29;20127;-72
2022/11/17 03:41:29;;;;;;;12.80;8.40;;;;;;;;;;4929118;29;20501;-72
2022/11/17 03:43:55;;;;;;;10.63;8.55;;;;;;;;;;4912641;29;20095;-71
2022/11/17 03:46:21;;;;;;;15.50;9.38;;;;;;;;;;4927417;29;20501;-72
2022/11/17 03:48:50;;;;;;;9.32;8.02;;;;;;;;;;4932575;29;20078;-72
2022/11/17 03:51:17;;;;;;;13.25;9.05;;;;;;;;;;4931936;29;20031;-72
2022/11/17 03:53:43;;;;;;;9.65;6.38;;;;;;;;;;4931241;29;20043;-72
2022/11/17 03:56:12;;;;;;;12.15;7.95;;;;;;;;;;4931943;29;20040;-72
2022/11/17 03:58:40;;;;;;;10.15;8.75;;;;;;;;;;4929746;29;20118;-72
2022/11/17 04:01:08;;;;;;;13.63;9.20;;;;;;;;;;4931124;29;20036;-73
2022/11/17 04:03:33;;;;;;;8.30;7.43;;;;;;;;;;4930972;29;20044;-72
2022/11/17 04:05:59;;;;;;;4.70;4.35;;;;;;;;;;4931377;29;20095;-73
2022/11/17 04:08:29;;;;;;;12.32;8.82;;;;;;;;;;4930442;29;20036;-72
2022/11/17 04:16:24;;;;;;;12.35;8.35;;;;;;;;;;4930511;29;20040;-72
2022/11/17 04:18:50;;;;;;;8.73;7.57;;;;;;;;;;4931359;29;20106;-72
2022/11/17 04:21:17;;;;;;;12.45;7.07;;;;;;;;;;4938877;28;20424;-72
2022/11/17 04:23:42;;;;;;;13.68;9.77;;;;;;;;;;4950737;28;20646;-72
2022/11/17 04:28:54;;;;;;;6.60;5.78;;;;;;;;;;4936376;29;20039;-73
2022/11/17 04:31:21;;;;;;;9.43;8.27;;;;;;;;;;4932361;29;20899;-73
2022/11/17 04:33:51;;;;;;;10.43;8.38;;;;;;;;;;4931816;29;20039;-72
2022/11/17 04:36:20;;;;;;;7.72;7.03;;;;;;;;;;4949278;29;20090;-72
2022/11/17 04:38:47;;;;;;;12.27;8.57;;;;;;;;;;4948333;29;20077;-73
2022/11/17 04:43:58;;;;;;;8.55;7.38;;;;;;;;;;4948459;29;20039;-73
2022/11/17 04:46:24;;;;;;;14.85;10.43;;;;;;;;;;4949671;28;20038;-73
2022/11/17 04:48:50;;;;;;;8.73;7.70;;;;;;;;;;4914956;29;20061;-71
2022/11/17 04:51:16;;;;;;;9.80;8.00;;;;;;;;;;4949353;29;20130;-71
2022/11/17 04:53:42;;;;;;;8.30;7.47;;;;;;;;;;4949263;29;20142;-72
2022/11/17 04:56:08;;;;;;;10.98;7.57;;;;;;;;;;4949442;29;20039;-70
2022/11/17 04:58:34;;;;;;;9.55;8.60;;;;;;;;;;4932446;29;20054;-71
2022/11/17 05:01:21;;;;;;;9.90;9.10;;;;;;;;;;4932041;29;20027;-70
2022/11/17 05:03:59;;;;;;;6.10;5.60;;;;;;;;;;4923281;29;20057;-74
2022/11/17 05:06:26;;;;;;;8.82;7.68;;;;;;;;;;4943075;29;20027;-72
2022/11/17 05:08:55;;;;;;;14.63;11.32;;;;;;;;;;4947060;29;20047;-73
2022/11/17 05:14:09;;;;;;;7.18;5.43;;;;;;;;;;4947942;29;20043;-71
2022/11/17 05:19:20;;;;;;;6.28;5.45;;;;;;;;;;4947854;29;20069;-75
2022/11/17 05:21:46;;;;;;;14.13;10.88;;;;;;;;;;4924476;29;20051;-73
2022/11/17 05:24:13;;;;;;;7.80;7.13;;;;;;;;;;4945991;29;20039;-72
2022/11/17 05:26:39;;;;;;;7.00;6.45;;;;;;;;;;4946124;29;20058;-72
2022/11/17 05:29:05;;;;;;;5.70;5.20;;;;;;;;;;4946909;29;20070;-72
2022/11/17 05:31:31;;;;;;;16.23;10.20;;;;;;;;;;4945065;29;20066;-71
2022/11/17 05:33:57;;;;;;;11.82;10.52;;;;;;;;;;4947000;29;20051;-71
2022/11/17 05:36:23;;;;;;;9.90;7.15;;;;;;;;;;4947481;29;20516;-71
2022/11/17 05:38:49;;;;;;;10.18;9.18;;;;;;;;;;4949823;28;20035;-71
2022/11/17 05:41:15;;;;;;;7.00;5.85;;;;;;;;;;4951022;29;20649;-71
2022/11/17 05:43:41;;;;;;;6.47;5.85;;;;;;;;;;4951082;29;20128;-71
2022/11/17 05:46:07;;;;;;;11.07;6.65;;;;;;;;;;4935866;29;20054;-72
2022/11/17 05:48:33;;;;;;;9.55;8.48;;;;;;;;;;4954351;29;20331;-72
2022/11/17 05:50:59;;;;;;;8.70;6.78;;;;;;;;;;4895653;29;20067;-70
2022/11/17 05:53:25;;;;;;;4.32;3.97;;;;;;;;;;4952039;29;20098;-72
2022/11/17 05:56:00;;;;;;;6.85;6.25;;;;;;;;;;4933917;29;20031;-71
2022/11/17 05:58:26;;;;;;;5.65;5.15;;;;;;;;;;4950606;29;20518;-71
2022/11/17 06:00:52;;;;;;;9.32;7.10;;;;;;;;;;4950634;28;20503;-70
2022/11/17 06:03:19;;;;;;;8.43;6.40;;;;;;;;;;4950873;29;20046;-71
2022/11/17 06:05:45;;;;;;;9.45;4.68;;;;;;;;;;4932519;29;20034;-71
2022/11/17 06:08:11;;;;;;;6.82;5.88;;;;;;;;;;4917576;29;20113;-71
2022/11/17 06:10:37;;;;;;;7.75;6.30;;;;;;;;;;4933250;29;20042;-70
2022/11/17 06:13:03;;;;;;;8.00;6.20;;;;;;;;;;4931880;29;20047;-70
2022/11/17 06:15:28;;;;;;;14.48;6.10;;;;;;;;;;4931269;29;20035;-69
2022/11/17 06:18:02;;;;;;;10.80;7.30;;;;;;;;;;4924243;29;20035;-72
2022/11/17 06:20:35;;;;;;;6.45;5.82;;;;;;;;;;4915640;29;20028;-71
2022/11/17 06:23:02;;;;;;;20.40;9.30;;;;;;;;;;4932157;29;20522;-71
2022/11/17 06:25:28;;;;;;;19.30;8.25;;;;;;;;;;4934029;29;20035;-72
2022/11/17 06:27:54;;;;;;;18.92;10.48;;;;;;;;;;4933378;29;20130;-72
2022/11/17 06:30:19;;;;;;;12.10;10.23;;;;;;;;;;4951227;29;20043;-70
2022/11/17 06:32:45;;;;;;;7.82;6.63;;;;;;;;;;4950563;29;20050;-73
2022/11/17 06:35:12;;;;;;;10.20;7.25;;;;;;;;;;4950864;29;20503;-73
2022/11/17 06:37:38;;;;;;;24.50;9.80;;;;;;;;;;4933508;29;20038;-72
2022/11/17 06:40:04;;;;;;;4.88;4.53;;;;;;;;;;4951030;29;20422;-71
2022/11/17 06:45:14;;;;;;;10.75;8.38;;;;;;;;;;4933271;29;20081;-71
2022/11/17 06:47:41;;;;;;;8.23;5.70;;;;;;;;;;4950503;29;20039;-72
2022/11/17 06:50:06;;;;;;;8.95;6.10;;;;;;;;;;4964627;28;20043;-70
2022/11/17 06:52:32;;;;;;;17.75;7.55;;;;;;;;;;4950317;29;20049;-70
2022/11/17 06:54:59;;;;;;;14.07;9.25;;;;;;;;;;4949744;29;20035;-69
2022/11/17 06:57:25;;;;;;;8.57;6.40;;;;;;;;;;4942198;29;20098;-70
2022/11/17 06:59:51;;;;;;;20.48;13.00;;;;;;;;;;4930407;29;20039;-70
2022/11/17 07:02:17;;;;;;;7.55;6.95;;;;;;;;;;4950425;28;20039;-70
2022/11/17 07:04:43;;;;;;;8.52;6.47;;;;;;;;;;4932641;29;20039;-70
2022/11/17 07:07:10;;;;;;;6.03;5.60;;;;;;;;;;4950256;29;20091;-70
2022/11/17 07:09:36;;;;;;;17.05;7.45;;;;;;;;;;4921179;29;20877;-71
2022/11/17 07:12:02;;;;;;;8.40;6.65;;;;;;;;;;4948676;29;20043;-70
2022/11/17 07:14:28;;;;;;;15.20;8.68;;;;;;;;;;4949953;29;20520;-70
2022/11/17 07:16:54;;;;;;;8.80;5.25;;;;;;;;;;4932912;29;20031;-72
2022/11/17 07:19:20;;;;;;;11.75;8.85;;;;;;;;;;4948708;29;20539;-70
2022/11/17 07:21:45;;;;;;;5.35;4.35;;;;;;;;;;4941887;29;20475;-70
2022/11/17 07:24:11;;;;;;;7.53;5.60;;;;;;;;;;4948131;29;20038;-71
2022/11/17 07:26:37;;;;;;;16.58;6.25;;;;;;;;;;4945297;29;20042;-71
2022/11/17 07:29:04;;;;;;;4.63;4.30;;;;;;;;;;4935872;29;20035;-71
2022/11/17 07:31:30;;;;;;;7.88;6.30;;;;;;;;;;4930806;29;20046;-69
2022/11/17 07:33:56;;;;;;;5.03;4.70;;;;;;;;;;4929801;29;20576;-69
2022/11/17 07:36:22;;;;;;;6.57;5.97;;;;;;;;;;4930603;29;20509;-70
2022/11/17 07:38:48;;;;;;;9.18;7.72;;;;;;;;;;4930072;29;20047;-71
2022/11/17 07:41:14;;;;;;;9.85;6.80;;;;;;;;;;4930503;29;20032;-71
2022/11/17 07:43:40;;;;;;;5.50;5.05;;;;;;;;;;4929994;29;20050;-71
2022/11/17 07:46:07;;;;;;;10.23;9.18;;;;;;;;;;4930225;29;20581;-71
2022/11/17 07:48:33;;;;;;;12.75;10.55;;;;;;;;;;4940856;29;20039;-71
2022/11/17 07:50:59;;;;;;;6.63;6.13;;;;;;;;;;4947255;29;20759;-71
2022/11/17 07:53:25;;;;;;;13.00;8.98;;;;;;;;;;4942956;29;20110;-71
2022/11/17 07:55:50;;;;;;;8.95;8.15;;;;;;;;;;4931442;29;20035;-71
2022/11/17 07:58:16;;;;;;;9.90;8.77;;;;;;;;;;4916249;29;20047;-73
2022/11/17 08:00:42;;;;;;;10.65;9.65;;;;;;;;;;4948897;28;20621;-72
2022/11/17 08:03:09;;;;;;;13.98;9.57;;;;;;;;;;4949208;28;20039;-73
2022/11/17 08:05:35;;;;;;;10.82;7.50;;;;;;;;;;4949387;28;20526;-72
2022/11/17 08:08:01;;;;;;;10.07;8.45;;;;;;;;;;4949154;28;20397;-72
2022/11/17 08:10:30;;;;;;;12.02;10.35;;;;;;;;;;4949370;28;20039;-72
2022/11/17 08:12:56;;;;;;;13.70;10.38;;;;;;;;;;4945137;29;20131;-72
2022/11/17 08:15:22;;;;;;;13.93;9.77;;;;;;;;;;4948838;29;20050;-73
2022/11/17 08:17:52;;;;;;;10.68;9.63;;;;;;;;;;4948515;29;20035;-69
2022/11/17 08:20:18;;;;;;;10.05;8.38;;;;;;;;;;4948971;29;20039;-71
2022/11/17 08:22:45;;;;;;;9.38;6.97;;;;;;;;;;4931028;29;20428;-71
2022/11/17 08:25:11;;;;;;;8.05;7.25;;;;;;;;;;4948799;29;20035;-70
2022/11/17 08:27:36;;;;;;;6.80;6.20;;;;;;;;;;4948590;29;20027;-71
2022/11/17 08:30:03;;;;;;;5.03;4.63;;;;;;;;;;4948696;29;20038;-71
2022/11/17 08:32:29;;;;;;;7.50;6.80;;;;;;;;;;4915495;29;20067;-70
2022/11/17 08:34:55;;;;;;;9.98;7.72;;;;;;;;;;4939315;29;20087;-70
2022/11/17 08:37:21;;;;;;;7.93;7.13;;;;;;;;;;4937300;29;20567;-71
2022/11/17 08:39:46;;;;;;;9.68;5.57;;;;;;;;;;4947653;29;20047;-70
2022/11/17 08:42:12;;;;;;;5.25;4.00;;;;;;;;;;4947033;29;20039;-72
2022/11/17 08:44:38;;;;;;;6.80;6.22;;;;;;;;;;4931138;29;20135;-72
2022/11/17 08:47:04;;;;;;;11.15;6.80;;;;;;;;;;4948518;29;20114;-71
2022/11/17 08:49:30;;;;;;;5.55;5.03;;;;;;;;;;4948444;29;20130;-71
2022/11/17 08:51:56;;;;;;;4.72;2.95;;;;;;;;;;4948207;29;20034;-71
2022/11/17 08:54:22;;;;;;;5.20;4.80;;;;;;;;;;4948175;29;20051;-71
2022/11/17 08:56:48;;;;;;;5.63;5.07;;;;;;;;;;4930737;29;20560;-71
2022/11/17 08:59:15;;;;;;;8.45;6.78;;;;;;;;;;4948029;29;20031;-71
2022/11/17 09:01:41;;;;;;;5.68;5.18;;;;;;;;;;4947821;28;20047;-71
2022/11/17 09:04:06;;;;;;;7.82;5.20;;;;;;;;;;4930987;29;20031;-71
2022/11/17 09:06:32;;;;;;;5.88;5.38;;;;;;;;;;4945709;28;20594;-72
2022/11/17 09:08:58;;;;;;;6.13;5.63;;;;;;;;;;4946133;29;20066;-72
2022/11/17 09:11:24;;;;;;;5.32;4.82;;;;;;;;;;4913539;29;20043;-72
2022/11/17 09:13:50;;;;;;;3.40;3.20;;;;;;;;;;4946676;29;20545;-72
2022/11/17 09:16:16;;;;;;;3.72;3.40;;;;;;;;;;4947821;29;20043;-72
2022/11/17 09:18:42;;;;;;;3.97;3.58;;;;;;;;;;4947218;29;20042;-72
2022/11/17 09:21:09;;;;;;;6.38;4.97;;;;;;;;;;4947682;29;20564;-73
2022/11/17 09:23:35;;;;;;;5.88;5.18;;;;;;;;;;4930295;29;20142;-71
2022/11/17 09:26:05;;;;;;;6.85;6.25;;;;;;;;;;4947946;29;20037;-71
2022/11/17 09:28:32;;;;;;;6.20;5.63;;;;;;;;;;4930915;29;20031;-72
2022/11/17 09:30:57;;;;;;;4.32;3.92;;;;;;;;;;4947816;29;20066;-72
2022/11/17 09:33:23;;;;;;;4.95;3.92;;;;;;;;;;4947733;29;20547;-72
2022/11/17 09:35:49;;;;;;;5.22;4.75;;;;;;;;;;4947746;29;20126;-71
2022/11/17 09:38:15;;;;;;;7.15;6.45;;;;;;;;;;4930642;29;20523;-71
2022/11/17 09:40:41;;;;;;;3.90;3.60;;;;;;;;;;4914838;29;20031;-72
2022/11/17 09:43:33;;;;;;;5.25;4.70;;;;;;;;;;4930601;29;20050;-72
2022/11/17 09:46:20;;;;;;;4.75;4.35;;;;;;;;;;4945136;29;20420;-72
2022/11/17 09:48:47;;;;;;;4.38;3.90;;;;;;;;;;4947205;29;20054;-72
2022/11/17 09:51:14;;;;;;;5.05;4.63;;;;;;;;;;4930729;29;20035;-71
2022/11/17 09:53:58;;;;;;;7.40;3.28;;;;;;;;;;4932612;29;20055;-71
2022/11/17 09:56:24;;;;;;;6.38;4.65;;;;;;;;;;4933715;29;20066;-73
2022/11/17 09:58:57;;;;;;;6.45;4.57;;;;;;;;;;4949747;29;20039;-71
2022/11/17 10:01:26;;;;;;;4.57;4.18;;;;;;;;;;4931874;29;20039;-71
2022/11/17 10:03:53;;;;;;;4.97;4.57;;;;;;;;;;4933444;29;20151;-72
2022/11/17 10:06:20;;;;;;;5.82;5.13;;;;;;;;;;4926523;29;20047;-72
2022/11/17 10:08:59;;;;;;;5.35;4.85;;;;;;;;;;4929147;29;20027;-70
2022/11/17 10:11:33;;;;;;;6.50;4.70;;;;;;;;;;4917818;29;20480;-71
2022/11/17 10:14:15;;;;;;;6.90;4.30;;;;;;;;;;4945595;29;20051;-71
2022/11/17 10:16:45;;;;;;;5.78;5.28;;;;;;;;;;4912782;29;20066;-71
2022/11/17 10:19:15;;;;;;;6.00;5.18;;;;;;;;;;4923065;29;20036;-71
2022/11/17 10:21:41;;;;;;;3.80;3.50;;;;;;;;;;4946118;29;20550;-72
2022/11/17 10:24:07;;;;;;;6.93;6.28;;;;;;;;;;4931996;29;20039;-71
2022/11/17 10:26:50;;;;;;;12.52;7.88;;;;;;;;;;4950996;29;20548;-71
2022/11/17 10:29:20;;;;;;;9.60;8.65;;;;;;;;;;4947876;29;20031;-71
2022/11/17 10:31:46;;;;;;;8.23;7.40;;;;;;;;;;4933648;29;20051;-71
2022/11/17 10:34:28;;;;;;;6.70;6.10;;;;;;;;;;4947786;29;20129;-71
2022/11/17 10:36:53;;;;;;;;;;;;;;;;;;4944069;29;20102;-71
2022/11/17 10:39:36;;;;;;;4.20;3.85;;;;;;;;;;4950654;29;20001;-70
2022/11/17 10:42:12;;;;;;;6.65;6.05;;;;;;;;;;4946201;29;20473;-72
2022/11/17 10:44:39;;;;;;;5.85;5.30;;;;;;;;;;4941242;29;20036;-71
2022/11/17 10:47:06;;;;;;;5.82;5.22;;;;;;;;;;4939422;29;20035;-70
2022/11/17 10:49:33;;;;;;;5.85;5.30;;;;;;;;;;4945335;29;20500;-70
2022/11/17 10:52:03;;;;;;;6.20;5.60;;;;;;;;;;4947145;29;20802;-72
2022/11/17 10:54:29;;;;;;;5.38;4.88;;;;;;;;;;4940319;29;20048;-71
2022/11/17 10:56:55;;;;;;;6.13;4.72;;;;;;;;;;4931044;29;20043;-70
2022/11/17 10:59:27;;;;;;;5.10;4.60;;;;;;;;;;4928494;29;20089;-71
2022/11/17 11:01:53;;;;;;;5.75;5.25;;;;;;;;;;4950287;29;20153;-71
2022/11/17 11:04:27;;;;;;;4.45;4.13;;;;;;;;;;4933830;29;20042;-71
2022/11/17 11:07:14;;;;;;;3.35;3.15;;;;;;;;;;4909051;29;20042;-71
2022/11/17 11:09:58;;;;;;;4.07;3.78;;;;;;;;;;4949257;29;20599;-70
2022/11/17 11:12:27;;;;;;;3.55;3.22;;;;;;;;;;4932458;29;20035;-72
2022/11/17 11:14:53;;;;;;;3.15;2.95;;;;;;;;;;4932469;29;20043;-71
2022/11/17 11:17:20;;;;;;;2.50;2.40;;;;;;;;;;4932995;29;20035;-71
2022/11/17 11:19:51;;;;;;;3.63;3.42;;;;;;;;;;4949020;28;20086;-70
2022/11/17 11:22:30;;;;;;;2.90;2.70;;;;;;;;;;4900871;29;20087;-72
2022/11/17 11:25:00;;;;;;;3.55;3.25;;;;;;;;;;4916754;29;20074;-70
2022/11/17 11:27:45;;;;;;;3.70;3.00;;;;;;;;;;4949847;29;20035;-71
2022/11/17 11:30:12;;;;;;;2.83;2.63;;;;;;;;;;4942863;29;20099;-70
2022/11/17 11:32:41;;;;;;;3.08;2.75;;;;;;;;;;4942986;29;20043;-71
2022/11/17 11:35:26;;;;;;;3.67;3.45;;;;;;;;;;4930523;29;20098;-70
2022/11/17 11:38:10;;;;;;;3.10;2.88;;;;;;;;;;4947181;29;20031;-73
2022/11/17 11:40:37;;;;;;;3.15;2.90;;;;;;;;;;4949196;29;20041;-71
2022/11/17 11:43:09;;;;;;;3.55;3.25;;;;;;;;;;4916769;29;20516;-71
2022/11/17 11:45:38;;;;;;;3.25;3.05;;;;;;;;;;4915088;29;20035;-71
2022/11/17 11:48:04;;;;;;;3.17;2.97;;;;;;;;;;4931220;28;20042;-72
2022/11/17 11:50:35;;;;;;;2.80;2.60;;;;;;;;;;4930018;29;20093;-70
2022/11/17 11:53:05;;;;;;;4.00;3.70;;;;;;;;;;4940730;29;20456;-70
2022/11/17 11:55:32;;;;;;;3.20;2.90;;;;;;;;;;4921460;29;20098;-73
2022/11/17 11:58:07;;;;;;;3.13;2.70;;;;;;;;;;4913056;29;20360;-72
2022/11/17 12:00:33;;;;;;;3.53;3.17;;;;;;;;;;4928701;29;20123;-72
2022/11/17 12:03:03;;;;;;;2.97;2.67;;;;;;;;;;4914254;29;20138;-70
2022/11/17 12:05:42;;;;;;;3.60;3.33;;;;;;;;;;4927423;29;20544;-72
2022/11/17 12:08:13;;;;;;;3.58;3.28;;;;;;;;;;4949886;29;20046;-72
2022/11/17 12:10:48;;;;;;;3.10;2.88;;;;;;;;;;4926969;29;20527;-72
2022/11/17 12:13:14;;;;;;;4.18;3.83;;;;;;;;;;4948293;29;20051;-73
2022/11/17 12:15:40;;;;;;;6.00;5.53;;;;;;;;;;4911846;29;20039;-71
2022/11/17 12:18:28;;;;;;;8.45;6.70;;;;;;;;;;4926282;29;20071;-70
2022/11/17 12:21:14;;;;;;;6.18;5.57;;;;;;;;;;4923160;29;20070;-71
2022/11/17 12:23:59;;;;;;;7.78;5.50;;;;;;;;;;4929914;29;20043;-71
2022/11/17 12:26:26;;;;;;;5.78;5.38;;;;;;;;;;4926873;29;20362;-71
2022/11/17 12:29:11;;;;;;;6.60;5.80;;;;;;;;;;4942768;29;20123;-71
2022/11/17 12:31:40;;;;;;;9.82;8.05;;;;;;;;;;4947972;29;20580;-71
2022/11/17 12:34:06;;;;;;;6.47;5.88;;;;;;;;;;4942984;29;20106;-72
2022/11/17 12:36:32;;;;;;;5.97;5.47;;;;;;;;;;4929719;29;20519;-72
2022/11/17 12:38:59;;;;;;;7.55;6.88;;;;;;;;;;4911982;29;20683;-72
2022/11/17 12:41:44;;;;;;;8.88;7.03;;;;;;;;;;4929756;29;20036;-73
2022/11/17 12:44:29;;;;;;;10.10;6.00;;;;;;;;;;4929866;29;20095;-71
2022/11/17 12:46:55;;;;;;;5.07;4.57;;;;;;;;;;4911312;29;20610;-71
2022/11/17 12:49:23;;;;;;;6.65;6.05;;;;;;;;;;4912199;29;20037;-72
2022/11/17 12:51:56;;;;;;;16.90;7.13;;;;;;;;;;4912027;29;20127;-72
2022/11/17 12:54:24;;;;;;;6.95;6.15;;;;;;;;;;4912409;29;20098;-72
2022/11/17 12:56:53;;;;;;;5.72;5.22;;;;;;;;;;4911951;29;20043;-72
2022/11/17 12:59:24;;;;;;;5.15;4.35;;;;;;;;;;4929065;29;20468;-72
2022/11/17 13:01:53;;;;;;;3.55;2.97;;;;;;;;;;4914073;29;20515;-71
2022/11/17 13:04:20;;;;;;;3.85;3.53;;;;;;;;;;4939724;29;20570;-72
2022/11/17 13:07:06;;;;;;;5.82;3.80;;;;;;;;;;4906799;29;20039;-71
2022/11/17 13:09:33;;;;;;;5.43;3.97;;;;;;;;;;4947114;29;20126;-72
2022/11/17 13:12:00;;;;;;;5.07;4.63;;;;;;;;;;4924553;29;20631;-71
2022/11/17 13:14:26;;;;;;;4.03;3.72;;;;;;;;;;4944645;29;20043;-72
2022/11/17 13:16:52;;;;;;;9.00;5.47;;;;;;;;;;4947952;29;20086;-70
2022/11/17 13:19:31;;;;;;;5.88;5.28;;;;;;;;;;4914884;29;20797;-71
2022/11/17 13:21:58;;;;;;;5.43;4.97;;;;;;;;;;4929976;29;20059;-70
2022/11/17 13:24:28;;;;;;;5.88;5.07;;;;;;;;;;4930949;29;20031;-72
2022/11/17 13:26:58;;;;;;;4.95;4.38;;;;;;;;;;4946865;29;20138;-73
2022/11/17 13:29:24;;;;;;;5.28;3.20;;;;;;;;;;4911612;29;20036;-72
2022/11/17 13:32:11;;;;;;;5.38;4.88;;;;;;;;;;4928714;29;20043;-72
2022/11/17 13:34:51;;;;;;;5.05;4.65;;;;;;;;;;4911393;29;20094;-70
2022/11/17 13:37:18;;;;;;;5.80;4.97;;;;;;;;;;4911605;29;20046;-71
2022/11/17 13:40:02;;;;;;;7.20;5.85;;;;;;;;;;4933839;28;20035;-71
2022/11/17 13:42:29;;;;;;;13.02;5.60;;;;;;;;;;4930169;29;20059;-74
2022/11/17 13:44:56;;;;;;;11.13;8.00;;;;;;;;;;4929609;29;20534;-72
2022/11/17 13:47:34;;;;;;;11.65;8.38;;;;;;;;;;4926867;29;20035;-71
2022/11/17 13:50:23;;;;;;;6.53;5.90;;;;;;;;;;4912702;29;20039;-73
2022/11/17 13:53:08;;;;;;;6.97;4.85;;;;;;;;;;4928482;29;20058;-72
2022/11/17 13:55:34;;;;;;;7.50;5.70;;;;;;;;;;4929118;29;20082;-72
2022/11/17 13:58:07;;;;;;;6.43;5.82;;;;;;;;;;4933257;29;20105;-72
2022/11/17 14:00:33;;;;;;;6.65;5.70;;;;;;;;;;4934403;28;20042;-72
2022/11/17 14:03:19;;;;;;;7.20;6.50;;;;;;;;;;4936991;29;20061;-73
2022/11/17 14:05:55;;;;;;;7.72;6.50;;;;;;;;;;4952500;29;20039;-73
2022/11/17 14:08:21;;;;;;;7.32;5.88;;;;;;;;;;4935189;29;20107;-74
2022/11/17 14:10:47;;;;;;;5.70;5.18;;;;;;;;;;4916198;29;20090;-72
2022/11/17 14:13:21;;;;;;;7.65;5.90;;;;;;;;;;4928081;29;20047;-73
2022/11/17 14:15:57;;;;;;;4.93;4.53;;;;;;;;;;4949238;29;20039;-73
2022/11/17 14:18:27;;;;;;;4.90;4.07;;;;;;;;;;4918077;29;20039;-72
2022/11/17 14:21:10;;;;;;;5.93;5.20;;;;;;;;;;4932716;29;20043;-73
2022/11/17 14:23:36;;;;;;;5.50;4.75;;;;;;;;;;4929985;29;20042;-72
2022/11/17 14:26:02;;;;;;;8.45;5.00;;;;;;;;;;4933534;29;20102;-72
2022/11/17 14:28:28;;;;;;;9.02;4.65;;;;;;;;;;4926897;29;20493;-73
2022/11/17 14:30:54;;;;;;;4.55;4.07;;;;;;;;;;4944076;29;20039;-72
2022/11/17 14:33:20;;;;;;;6.57;5.07;;;;;;;;;;4927651;29;20044;-73
2022/11/17 14:35:50;;;;;;;4.78;4.38;;;;;;;;;;4950133;29;20028;-72
2022/11/17 14:38:17;;;;;;;7.70;4.75;;;;;;;;;;4933573;29;20126;-72
2022/11/17 14:40:43;;;;;;;6.43;5.45;;;;;;;;;;4917394;29;20078;-72
2022/11/17 14:43:09;;;;;;;7.90;4.90;;;;;;;;;;4948591;29;20043;-71
2022/11/17 14:45:35;;;;;;;11.55;6.30;;;;;;;;;;4950544;29;20511;-72
2022/11/17 14:48:01;;;;;;;9.45;5.75;;;;;;;;;;4932983;29;20039;-71
2022/11/17 14:50:27;;;;;;;8.07;6.30;;;;;;;;;;4933434;29;20043;-71
2022/11/17 14:52:53;;;;;;;10.40;7.13;;;;;;;;;;4918889;29;20047;-72
2022/11/17 14:55:20;;;;;;;13.90;5.20;;;;;;;;;;4931337;29;20071;-72
2022/11/17 14:57:47;;;;;;;6.35;5.20;;;;;;;;;;4929939;29;20496;-72
2022/11/17 15:00:13;;;;;;;7.60;5.38;;;;;;;;;;4931261;29;20040;-72
2022/11/17 15:02:39;;;;;;;8.98;5.88;;;;;;;;;;4913805;29;20496;-71
2022/11/17 15:05:06;;;;;;;8.38;6.57;;;;;;;;;;4914250;29;20044;-72
2022/11/17 15:07:32;;;;;;;9.65;7.63;;;;;;;;;;4915266;29;20040;-73
2022/11/17 15:09:58;;;;;;;10.43;7.00;;;;;;;;;;4928528;29;20390;-71
2022/11/17 15:12:24;;;;;;;11.55;6.47;;;;;;;;;;4930234;29;20122;-71